Time;durP1;ratioP1;P1;durP2;ratioP2;P2;SDS_P1;SDS_P2;PMS_P1;PMS_P2;Temp;Humidity;BMP_temperature;BMP_pressure;BME280_temperature;BME280_humidity;BME280_pressure;Samples;Min_cycle;Max_cycle;Signal;HPM_P1;HPM_P2
2021/01/02 00:01:35;;;;;;;51.60;26.92;;;4.20;99.90;;;;;;4180824;28;20488;-74
2021/01/02 00:04:09;;;;;;;50.75;27.38;;;4.20;99.90;;;;;;4180979;28;20029;-74
2021/01/02 00:06:27;;;;;;;55.38;29.15;;;4.20;99.90;;;;;;4144998;28;20033;-74
2021/01/02 00:08:30;;;;;;;52.50;24.38;;;4.20;99.90;;;;;;4160775;28;20034;-74
2021/01/02 00:11:17;;;;;;;54.10;26.60;;;4.20;99.90;;;;;;4180941;28;20455;-76
2021/01/02 00:13:40;;;;;;;50.10;26.98;;;4.20;99.90;;;;;;4155887;28;20037;-73
2021/01/02 00:16:13;;;;;;;58.17;29.73;;;4.10;99.90;;;;;;4178019;28;20052;-73
2021/01/02 00:18:35;;;;;;;53.90;27.95;;;4.10;99.90;;;;;;4161785;28;20115;-73
2021/01/02 00:21:01;;;;;;;54.30;27.60;;;4.10;99.90;;;;;;4175894;28;20033;-73
2021/01/02 00:23:08;;;;;;;52.47;26.50;;;4.10;99.90;;;;;;4177414;28;20030;-74
2021/01/02 00:25:14;;;;;;;49.47;26.48;;;4.10;99.90;;;;;;4180428;28;20018;-74
2021/01/02 00:27:28;;;;;;;58.65;29.05;;;4.10;99.90;;;;;;4180426;28;20376;-73
2021/01/02 00:29:54;;;;;;;49.97;26.92;;;4.10;99.90;;;;;;4177258;28;20021;-75
2021/01/02 00:32:17;;;;;;;53.42;27.83;;;4.10;99.90;;;;;;4171807;28;20113;-75
2021/01/02 00:34:44;;;;;;;55.13;28.15;;;4.10;99.90;;;;;;4176303;28;20033;-73
2021/01/02 00:37:08;;;;;;;59.75;28.33;;;4.00;99.90;;;;;;4180046;28;20051;-74
2021/01/02 00:39:20;;;;;;;54.30;29.23;;;4.00;99.90;;;;;;4156272;28;20037;-74
2021/01/02 00:41:22;;;;;;;57.47;28.42;;;3.90;99.90;;;;;;4179946;28;20036;-74
2021/01/02 00:43:24;;;;;;;59.97;28.85;;;3.90;99.90;;;;;;4180443;28;20048;-74
2021/01/02 00:45:27;;;;;;;56.05;28.65;;;3.90;99.90;;;;;;4177306;28;20048;-74
2021/01/02 00:47:31;;;;;;;;;;;3.90;99.90;;;;;;4180711;28;20021;-73
2021/01/02 00:49:33;;;;;;;65.18;28.52;;;3.90;99.90;;;;;;4180421;28;19931;-74
2021/01/02 00:51:47;;;;;;;59.35;29.38;;;3.90;99.90;;;;;;4161306;28;20080;-74
2021/01/02 00:54:26;;;;;;;59.42;28.70;;;3.90;99.90;;;;;;4170099;28;20033;-74
2021/01/02 00:56:34;;;;;;;58.58;30.45;;;3.90;99.90;;;;;;4162349;28;20025;-74
2021/01/02 00:59:16;;;;;;;66.38;30.48;;;3.80;99.90;;;;;;4179934;28;20527;-73
2021/01/02 01:01:29;;;;;;;57.78;29.40;;;3.80;99.90;;;;;;4170729;28;20063;-73
2021/01/02 01:03:42;;;;;;;61.30;30.27;;;3.80;99.90;;;;;;4162365;28;20063;-73
2021/01/02 01:05:46;;;;;;;62.28;30.83;;;3.80;99.90;;;;;;4160898;28;20526;-73
2021/01/02 01:07:55;;;;;;;62.20;31.45;;;3.80;99.90;;;;;;4162317;28;20037;-73
2021/01/02 01:10:00;;;;;;;62.70;30.35;;;3.80;99.90;;;;;;4173934;28;20032;-73
2021/01/02 01:12:01;;;;;;;54.17;28.70;;;3.80;99.90;;;;;;4179807;28;20137;-75
2021/01/02 01:14:05;;;;;;;57.95;30.75;;;3.80;99.90;;;;;;4179707;28;20392;-74
2021/01/02 01:16:06;;;;;;;58.80;29.55;;;3.80;99.90;;;;;;4152676;28;20026;-74
2021/01/02 01:18:16;;;;;;;60.45;29.42;;;3.80;99.90;;;;;;4161785;28;20025;-75
2021/01/02 01:20:17;;;;;;;60.05;29.90;;;3.80;99.90;;;;;;4179682;28;20033;-74
2021/01/02 01:22:26;;;;;;;59.80;29.52;;;3.80;99.90;;;;;;4162091;28;20400;-74
2021/01/02 01:24:45;;;;;;;67.78;32.17;;;3.80;99.90;;;;;;4179650;28;20383;-74
2021/01/02 01:27:02;;;;;;;56.60;26.20;;;3.70;99.90;;;;;;4179588;28;20060;-74
2021/01/02 01:29:04;;;;;;;68.65;32.00;;;3.70;99.90;;;;;;4159604;28;20026;-74
2021/01/02 01:31:09;;;;;;;63.13;32.95;;;3.70;99.90;;;;;;4177877;28;20031;-75
2021/01/02 01:33:14;;;;;;;67.20;31.17;;;3.60;99.90;;;;;;4160330;28;20033;-74
2021/01/02 01:35:25;;;;;;;58.08;30.48;;;3.60;99.90;;;;;;4178350;28;20071;-74
2021/01/02 01:37:29;;;;;;;70.93;32.60;;;3.60;99.90;;;;;;4178172;28;20116;-75
2021/01/02 01:39:31;;;;;;;62.40;30.15;;;3.70;99.90;;;;;;4177989;28;20087;-74
2021/01/02 01:41:40;;;;;;;60.10;28.92;;;3.70;99.90;;;;;;4177852;28;20078;-74
2021/01/02 01:44:03;;;;;;;58.38;30.20;;;3.70;99.90;;;;;;4178025;28;20025;-74
2021/01/02 01:46:15;;;;;;;63.58;33.58;;;3.70;99.90;;;;;;4177824;28;20025;-75
2021/01/02 01:48:25;;;;;;;64.35;31.80;;;3.70;99.90;;;;;;4177675;28;20647;-74
2021/01/02 01:50:35;;;;;;;64.28;30.67;;;3.70;99.90;;;;;;4171024;28;20041;-74
2021/01/02 01:53:03;;;;;;;64.18;30.58;;;3.70;99.90;;;;;;4160184;28;20121;-74
2021/01/02 01:55:13;;;;;;;64.45;32.92;;;3.80;99.90;;;;;;4177342;28;20083;-75
2021/01/02 01:57:25;;;;;;;60.20;30.33;;;3.70;99.90;;;;;;4178748;28;20025;-75
2021/01/02 01:59:57;;;;;;;62.70;31.25;;;3.70;99.90;;;;;;4173003;28;20496;-75
2021/01/02 02:02:12;;;;;;;59.63;31.00;;;3.70;99.90;;;;;;4160788;28;20034;-75
2021/01/02 02:04:12;;;;;;;60.53;30.92;;;3.80;99.90;;;;;;4184048;28;20033;-76
2021/01/02 02:06:29;;;;;;;57.55;31.52;;;3.80;99.90;;;;;;4184893;28;20556;-75
2021/01/02 02:08:44;;;;;;;59.83;32.38;;;3.90;99.90;;;;;;4184625;28;20032;-74
2021/01/02 02:10:46;;;;;;;62.05;32.20;;;3.90;99.90;;;;;;4184781;28;20029;-73
2021/01/02 02:12:52;;;;;;;58.95;31.08;;;3.80;99.90;;;;;;4184433;28;20506;-74
2021/01/02 02:14:58;;;;;;;61.00;32.55;;;3.80;99.90;;;;;;4184780;28;20399;-74
2021/01/02 02:17:04;;;;;;;64.90;33.88;;;3.80;99.90;;;;;;4167120;28;20128;-73
2021/01/02 02:19:12;;;;;;;58.75;32.67;;;3.80;99.90;;;;;;4184049;28;20672;-76
2021/01/02 02:21:26;;;;;;;57.88;30.13;;;3.80;99.90;;;;;;4184369;28;20029;-73
2021/01/02 02:23:30;;;;;;;;;;;3.80;99.90;;;;;;4185171;28;20480;-73
2021/01/02 02:25:46;;;;;;;60.17;30.73;;;3.80;99.90;;;;;;4184657;28;19963;-74
2021/01/02 02:27:47;;;;;;;56.38;30.85;;;3.80;99.90;;;;;;4166821;28;20029;-75
2021/01/02 02:29:56;;;;;;;65.30;32.28;;;3.70;99.90;;;;;;4184460;28;20033;-73
2021/01/02 02:32:08;;;;;;;59.63;32.78;;;3.70;99.90;;;;;;4184302;28;20025;-74
2021/01/02 02:34:10;;;;;;;57.85;32.63;;;3.70;99.90;;;;;;4183832;28;20117;-73
2021/01/02 02:36:13;;;;;;;60.13;32.58;;;3.70;99.90;;;;;;4167803;28;20030;-74
2021/01/02 02:38:14;;;;;;;56.22;33.90;;;3.70;99.90;;;;;;4157523;28;20504;-74
2021/01/02 02:40:19;;;;;;;58.53;33.20;;;3.60;99.90;;;;;;4176564;28;20025;-74
2021/01/02 02:42:22;;;;;;;58.50;31.88;;;3.60;99.90;;;;;;4184475;28;20480;-74
2021/01/02 02:44:30;;;;;;;61.75;32.97;;;3.60;99.90;;;;;;4167663;28;20060;-74
2021/01/02 02:46:39;;;;;;;59.33;32.47;;;3.60;99.90;;;;;;4184241;28;20427;-75
2021/01/02 02:48:44;;;;;;;62.33;32.95;;;3.60;99.90;;;;;;4184252;28;20028;-73
2021/01/02 02:50:49;;;;;;;61.67;33.15;;;3.60;99.90;;;;;;4184165;28;20116;-74
2021/01/02 02:53:12;;;;;;;65.88;34.65;;;3.60;99.90;;;;;;4166936;28;20017;-73
2021/01/02 02:55:13;;;;;;;60.47;33.45;;;3.50;99.90;;;;;;4184043;28;20033;-75
2021/01/02 02:57:16;;;;;;;56.75;32.13;;;3.50;99.90;;;;;;4184120;28;20476;-73
2021/01/02 02:59:17;;;;;;;59.42;30.85;;;3.50;99.90;;;;;;4184194;28;20136;-74
2021/01/02 03:01:18;;;;;;;59.80;32.20;;;3.60;99.90;;;;;;4184457;28;20033;-74
2021/01/02 03:03:18;;;;;;;56.15;33.60;;;3.50;99.90;;;;;;4166709;28;20117;-74
2021/01/02 03:05:19;;;;;;;56.28;33.60;;;3.50;99.90;;;;;;4166507;28;20029;-73
2021/01/02 03:07:20;;;;;;;56.00;33.05;;;3.50;99.90;;;;;;4183678;28;20388;-74
2021/01/02 03:09:21;;;;;;;60.13;33.97;;;3.50;99.90;;;;;;4166710;28;20033;-74
2021/01/02 03:11:26;;;;;;;60.03;34.33;;;3.50;99.90;;;;;;4184187;28;20041;-74
2021/01/02 03:13:26;;;;;;;63.05;35.50;;;3.50;99.90;;;;;;4165760;28;20029;-74
2021/01/02 03:15:27;;;;;;;56.53;31.80;;;3.50;99.90;;;;;;4180610;28;20102;-74
2021/01/02 03:17:27;;;;;;;58.33;34.40;;;3.50;99.90;;;;;;4180328;28;20085;-74
2021/01/02 03:19:30;;;;;;;61.13;34.40;;;3.50;99.90;;;;;;4180019;28;20041;-74
2021/01/02 03:21:30;;;;;;;61.30;33.85;;;3.50;99.90;;;;;;4180023;28;20087;-74
2021/01/02 03:23:42;;;;;;;61.88;35.63;;;3.50;99.90;;;;;;4180017;28;20037;-74
2021/01/02 03:25:42;;;;;;;53.17;32.45;;;3.40;99.90;;;;;;4179709;28;20561;-74
2021/01/02 03:27:43;;;;;;;51.38;29.08;;;3.40;99.90;;;;;;4179640;28;20118;-74
2021/01/02 03:29:43;;;;;;;54.15;30.77;;;3.50;99.90;;;;;;4179794;28;20112;-73
2021/01/02 03:31:44;;;;;;;55.63;33.15;;;3.50;99.90;;;;;;4180314;28;20028;-74
2021/01/02 03:33:46;;;;;;;61.33;32.38;;;3.50;99.90;;;;;;4180345;28;20021;-74
2021/01/02 03:35:46;;;;;;;52.10;31.52;;;3.50;99.90;;;;;;4159153;28;20037;-74
2021/01/02 03:37:48;;;;;;;55.75;30.20;;;3.60;99.90;;;;;;4179745;28;20036;-74
2021/01/02 03:39:48;;;;;;;55.60;33.55;;;3.60;99.90;;;;;;4156634;28;20046;-75
2021/01/02 03:41:49;;;;;;;54.03;31.50;;;3.50;99.90;;;;;;4174653;28;20032;-74
2021/01/02 03:43:50;;;;;;;51.72;31.48;;;3.50;99.90;;;;;;4178304;28;20041;-75
2021/01/02 03:45:52;;;;;;;54.22;31.88;;;3.50;99.90;;;;;;4177912;28;20068;-74
2021/01/02 03:47:52;;;;;;;51.45;33.58;;;3.50;99.90;;;;;;4178061;28;20526;-75
2021/01/02 03:49:53;;;;;;;58.60;32.65;;;3.50;99.90;;;;;;4179279;28;20025;-75
2021/01/02 03:51:53;;;;;;;53.20;30.05;;;3.50;99.90;;;;;;4161345;28;20049;-75
2021/01/02 03:53:54;;;;;;;55.15;33.80;;;3.50;99.90;;;;;;4179575;28;20041;-75
2021/01/02 03:55:55;;;;;;;50.85;33.60;;;3.50;99.90;;;;;;4179448;28;20032;-75
2021/01/02 03:57:55;;;;;;;51.97;32.13;;;3.50;99.90;;;;;;4179206;28;20322;-74
2021/01/02 03:59:56;;;;;;;53.60;32.03;;;3.50;99.90;;;;;;4179655;28;20472;-75
2021/01/02 04:02:00;;;;;;;53.13;32.30;;;3.60;99.90;;;;;;4179925;28;20029;-75
2021/01/02 04:04:00;;;;;;;51.67;31.90;;;3.60;99.90;;;;;;4180945;28;20021;-75
2021/01/02 04:06:01;;;;;;;53.72;32.22;;;3.60;99.90;;;;;;4163327;28;20041;-74
2021/01/02 04:08:02;;;;;;;53.85;33.42;;;3.60;99.90;;;;;;4180437;28;20025;-75
2021/01/02 04:10:04;;;;;;;53.20;31.65;;;3.60;99.90;;;;;;4180403;28;20095;-74
2021/01/02 04:12:05;;;;;;;60.40;33.58;;;3.50;99.90;;;;;;4180874;28;20029;-75
2021/01/02 04:14:06;;;;;;;60.63;33.63;;;3.50;99.90;;;;;;4180709;28;20017;-75
2021/01/02 04:16:06;;;;;;;60.53;34.53;;;3.50;99.90;;;;;;4172432;28;20464;-75
2021/01/02 04:18:07;;;;;;;60.83;33.40;;;3.50;99.90;;;;;;4180949;28;20540;-75
2021/01/02 04:20:08;;;;;;;59.33;36.55;;;3.50;99.90;;;;;;4180892;28;20108;-75
2021/01/02 04:22:08;;;;;;;59.33;35.80;;;3.50;99.90;;;;;;4180439;28;20584;-75
2021/01/02 04:24:09;;;;;;;59.83;36.20;;;3.50;99.90;;;;;;4180648;28;20021;-75
2021/01/02 04:26:10;;;;;;;61.45;34.45;;;3.50;99.90;;;;;;4180236;28;20465;-74
2021/01/02 04:28:11;;;;;;;52.97;35.33;;;3.50;99.90;;;;;;4162747;28;20022;-75
2021/01/02 04:30:12;;;;;;;59.90;33.63;;;3.50;99.90;;;;;;4180520;28;20041;-74
2021/01/02 04:32:13;;;;;;;57.58;34.00;;;3.50;99.90;;;;;;4162541;28;20021;-74
2021/01/02 04:34:13;;;;;;;63.80;36.05;;;3.50;99.90;;;;;;4180243;28;20075;-74
2021/01/02 04:36:17;;;;;;;54.28;33.55;;;3.50;99.90;;;;;;4180411;28;20396;-75
2021/01/02 04:38:18;;;;;;;57.55;34.95;;;3.50;99.90;;;;;;4172882;28;20048;-74
2021/01/02 04:40:18;;;;;;;60.08;35.30;;;3.50;99.90;;;;;;4162557;28;20076;-75
2021/01/02 04:42:21;;;;;;;61.05;35.17;;;3.50;99.90;;;;;;4180270;28;20040;-75
2021/01/02 04:44:22;;;;;;;56.70;34.30;;;3.40;99.90;;;;;;4180597;28;20033;-74
2021/01/02 04:46:24;;;;;;;59.60;34.50;;;3.40;99.90;;;;;;4180432;28;20029;-74
2021/01/02 04:48:24;;;;;;;62.42;36.20;;;3.40;99.90;;;;;;4162346;28;20103;-74
2021/01/02 04:50:27;;;;;;;62.80;34.50;;;3.40;99.90;;;;;;4162271;28;20029;-74
2021/01/02 04:52:31;;;;;;;58.22;35.55;;;3.30;99.90;;;;;;4162534;28;20033;-75
2021/01/02 04:54:35;;;;;;;60.38;35.65;;;3.40;99.90;;;;;;4180298;28;20117;-75
2021/01/02 04:56:38;;;;;;;;;;;3.40;99.90;;;;;;4170727;28;20029;-73
2021/01/02 04:58:43;;;;;;;59.83;33.65;;;3.30;99.90;;;;;;4174865;28;19952;-75
2021/01/02 05:00:46;;;;;;;66.40;36.17;;;3.30;99.90;;;;;;4180127;28;20127;-75
2021/01/02 05:02:47;;;;;;;65.63;38.20;;;3.40;99.90;;;;;;4162120;28;20035;-73
2021/01/02 05:04:48;;;;;;;73.68;39.10;;;3.30;99.90;;;;;;4180191;28;20052;-76
2021/01/02 05:06:49;;;;;;;71.47;38.60;;;3.30;99.90;;;;;;4161704;28;20022;-74
2021/01/02 05:08:51;;;;;;;65.60;35.80;;;3.30;99.90;;;;;;4178517;28;20031;-74
2021/01/02 05:11:06;;;;;;;69.07;38.42;;;3.30;99.90;;;;;;4178004;28;20029;-74
2021/01/02 05:13:14;;;;;;;61.55;36.08;;;3.40;99.90;;;;;;4177873;28;20112;-74
2021/01/02 05:15:15;;;;;;;69.28;37.67;;;3.40;99.90;;;;;;4179172;28;20569;-74
2021/01/02 05:17:25;;;;;;;76.88;39.97;;;3.30;99.90;;;;;;4162092;28;20037;-74
2021/01/02 05:19:26;;;;;;;74.53;40.67;;;3.30;99.90;;;;;;4161817;28;20034;-74
2021/01/02 05:21:31;;;;;;;80.50;41.70;;;3.30;99.90;;;;;;4179743;28;20029;-74
2021/01/02 05:23:32;;;;;;;75.65;42.17;;;3.30;99.90;;;;;;4179209;28;20391;-74
2021/01/02 05:25:32;;;;;;;79.45;43.17;;;3.30;99.90;;;;;;4161127;28;20041;-74
2021/01/02 05:27:38;;;;;;;73.65;41.33;;;3.30;99.90;;;;;;4160147;28;20048;-75
2021/01/02 05:29:38;;;;;;;83.97;44.10;;;3.30;99.90;;;;;;4178195;28;20029;-74
2021/01/02 05:31:40;;;;;;;80.93;44.22;;;3.30;99.90;;;;;;4178482;28;20029;-75
2021/01/02 05:33:41;;;;;;;74.30;43.15;;;3.30;99.90;;;;;;4177905;28;20029;-74
2021/01/02 05:35:47;;;;;;;78.40;44.78;;;3.30;99.90;;;;;;4171251;28;20554;-75
2021/01/02 05:37:48;;;;;;;75.03;43.65;;;3.40;99.90;;;;;;4157121;28;20385;-73
2021/01/02 05:39:52;;;;;;;86.10;45.90;;;3.30;99.90;;;;;;4165041;28;20168;-73
2021/01/02 05:41:54;;;;;;;72.43;40.13;;;3.30;99.90;;;;;;4161201;28;20033;-73
2021/01/02 05:44:11;;;;;;;84.10;43.85;;;3.30;99.90;;;;;;4160668;28;20025;-73
2021/01/02 05:46:13;;;;;;;73.75;42.42;;;3.30;99.90;;;;;;4175924;28;20037;-73
2021/01/02 05:48:14;;;;;;;72.75;41.45;;;3.40;99.90;;;;;;4174254;28;20028;-74
2021/01/02 05:50:20;;;;;;;76.60;40.80;;;3.40;99.90;;;;;;4168490;28;20029;-74
2021/01/02 05:52:20;;;;;;;77.90;41.58;;;3.30;99.90;;;;;;4170191;28;20163;-74
2021/01/02 05:54:25;;;;;;;75.78;44.55;;;3.30;99.90;;;;;;4170328;28;20461;-76
2021/01/02 05:56:26;;;;;;;75.97;39.08;;;3.30;99.90;;;;;;4167480;28;20041;-73
2021/01/02 05:58:34;;;;;;;79.68;40.92;;;3.30;99.90;;;;;;4171705;28;20041;-74
2021/01/02 06:00:36;;;;;;;73.43;40.00;;;3.30;99.90;;;;;;4158674;28;20029;-74
2021/01/02 06:02:37;;;;;;;86.22;45.45;;;3.30;99.90;;;;;;4173330;28;20044;-74
2021/01/02 06:04:56;;;;;;;78.50;41.42;;;3.30;99.90;;;;;;4153356;28;20453;-74
2021/01/02 06:07:07;;;;;;;76.53;41.95;;;3.30;99.90;;;;;;4160296;28;20480;-74
2021/01/02 06:09:08;;;;;;;80.13;41.17;;;3.30;99.90;;;;;;4177462;28;20042;-74
2021/01/02 06:11:16;;;;;;;82.38;41.58;;;3.20;99.90;;;;;;4177621;28;20123;-74
2021/01/02 06:13:18;;;;;;;82.57;42.53;;;3.30;99.90;;;;;;4177542;28;20120;-75
2021/01/02 06:15:18;;;;;;;78.45;40.80;;;3.30;99.90;;;;;;4177552;28;20044;-74
2021/01/02 06:17:27;;;;;;;82.63;42.08;;;3.20;99.90;;;;;;4178086;28;20037;-74
2021/01/02 06:19:28;;;;;;;79.70;41.45;;;3.20;99.90;;;;;;4178036;28;20503;-73
2021/01/02 06:21:30;;;;;;;82.25;43.00;;;3.30;99.90;;;;;;4178012;28;20037;-74
2021/01/02 06:23:34;;;;;;;84.40;42.08;;;3.20;99.90;;;;;;4160715;28;20057;-74
2021/01/02 06:25:34;;;;;;;81.53;41.58;;;3.20;99.90;;;;;;4161086;28;20161;-73
2021/01/02 06:27:45;;;;;;;93.03;43.13;;;3.20;99.90;;;;;;4178982;28;20037;-74
2021/01/02 06:29:54;;;;;;;82.65;45.50;;;3.20;99.90;;;;;;4171138;28;20123;-74
2021/01/02 06:31:54;;;;;;;84.57;43.58;;;3.10;99.90;;;;;;4161164;28;20037;-74
2021/01/02 06:33:55;;;;;;;83.13;42.92;;;3.10;99.90;;;;;;4179031;28;20055;-74
2021/01/02 06:35:57;;;;;;;82.05;44.97;;;3.10;99.90;;;;;;4161425;28;20121;-74
2021/01/02 06:37:58;;;;;;;86.40;42.97;;;3.10;99.90;;;;;;4161285;28;20393;-74
2021/01/02 06:40:25;;;;;;;91.07;43.40;;;3.10;99.90;;;;;;4178783;28;20037;-75
2021/01/02 06:42:31;;;;;;;91.53;45.67;;;3.10;99.90;;;;;;4160464;28;20029;-74
2021/01/02 06:44:46;;;;;;;92.47;45.65;;;3.10;99.90;;;;;;4178555;28;20108;-74
2021/01/02 06:46:46;;;;;;;88.82;46.38;;;3.10;99.90;;;;;;4157139;28;20032;-74
2021/01/02 06:48:47;;;;;;;88.40;47.08;;;3.10;99.90;;;;;;4161135;28;20469;-74
2021/01/02 06:50:50;;;;;;;88.90;48.58;;;3.10;99.90;;;;;;4163738;28;20563;-73
2021/01/02 06:52:51;;;;;;;91.85;47.67;;;3.10;99.90;;;;;;4182334;28;20021;-74
2021/01/02 06:54:51;;;;;;;92.30;46.53;;;3.10;99.90;;;;;;4164085;28;20022;-74
2021/01/02 06:57:03;;;;;;;87.35;45.13;;;3.10;99.90;;;;;;4163910;28;20496;-75
2021/01/02 06:59:04;;;;;;;89.78;44.13;;;3.10;99.90;;;;;;4170942;28;20033;-74
2021/01/02 07:01:07;;;;;;;93.20;47.55;;;3.10;99.90;;;;;;4180511;28;20021;-74
2021/01/02 07:03:29;;;;;;;90.38;47.53;;;3.10;99.90;;;;;;4181176;28;20499;-74
2021/01/02 07:05:49;;;;;;;95.43;46.30;;;3.10;99.90;;;;;;4180282;28;20057;-73
2021/01/02 07:07:49;;;;;;;98.03;46.20;;;3.00;99.90;;;;;;4181642;28;20465;-74
2021/01/02 07:09:50;;;;;;;93.32;44.25;;;3.00;99.90;;;;;;4163976;28;20104;-73
2021/01/02 07:12:04;;;;;;;104.93;48.50;;;3.10;99.90;;;;;;4180352;28;20120;-73
2021/01/02 07:14:08;;;;;;;87.38;40.53;;;3.10;99.90;;;;;;4161153;28;20025;-74
2021/01/02 07:16:37;;;;;;;105.88;48.10;;;3.10;99.90;;;;;;4162692;28;20062;-73
2021/01/02 07:18:39;;;;;;;91.60;45.20;;;3.10;99.90;;;;;;4181653;28;20033;-74
2021/01/02 07:20:40;;;;;;;91.88;46.17;;;3.10;99.90;;;;;;4181407;28;20029;-74
2021/01/02 07:22:41;;;;;;;98.53;46.58;;;3.00;99.90;;;;;;4181671;28;20115;-74
2021/01/02 07:24:46;;;;;;;101.32;47.90;;;3.10;99.90;;;;;;4180423;28;20032;-74
2021/01/02 07:26:47;;;;;;;96.57;47.58;;;3.00;99.90;;;;;;4180093;28;20037;-74
2021/01/02 07:28:52;;;;;;;105.35;44.45;;;3.00;99.90;;;;;;4179762;28;20033;-73
2021/01/02 07:30:57;;;;;;;104.88;44.00;;;3.10;99.90;;;;;;4180081;28;20033;-73
2021/01/02 07:32:58;;;;;;;101.20;44.50;;;3.10;99.90;;;;;;4180721;28;20025;-74
2021/01/02 07:35:01;;;;;;;91.63;44.78;;;3.00;99.90;;;;;;4180108;28;20025;-75
2021/01/02 07:37:07;;;;;;;98.80;45.65;;;3.00;99.90;;;;;;4179144;28;20078;-74
2021/01/02 07:39:08;;;;;;;104.50;46.65;;;3.00;99.90;;;;;;4179916;28;20078;-74
2021/01/02 07:41:09;;;;;;;119.93;47.28;;;3.00;99.90;;;;;;4180616;28;20017;-74
2021/01/02 07:43:11;;;;;;;98.88;42.40;;;3.10;99.90;;;;;;4177722;28;20045;-74
2021/01/02 07:45:14;;;;;;;115.35;47.28;;;3.00;99.90;;;;;;4160887;28;20034;-74
2021/01/02 07:47:16;;;;;;;103.57;48.03;;;3.00;99.90;;;;;;4178411;28;20431;-73
2021/01/02 07:49:17;;;;;;;107.85;47.78;;;3.00;99.90;;;;;;4177608;28;20049;-74
2021/01/02 07:51:18;;;;;;;109.32;45.22;;;3.00;99.90;;;;;;4177764;28;20049;-73
2021/01/02 07:53:19;;;;;;;101.13;43.97;;;3.00;99.90;;;;;;4178797;28;20041;-74
2021/01/02 07:55:24;;;;;;;111.13;46.17;;;3.10;99.90;;;;;;4161431;28;20121;-73
2021/01/02 07:57:26;;;;;;;102.82;45.65;;;3.10;99.90;;;;;;4161240;28;20056;-74
2021/01/02 07:59:29;;;;;;;118.70;49.40;;;3.10;99.90;;;;;;4178326;28;20098;-74
2021/01/02 08:01:30;;;;;;;118.55;50.60;;;3.10;99.90;;;;;;4178081;28;20159;-73
2021/01/02 08:03:31;;;;;;;111.32;47.85;;;3.10;99.90;;;;;;4161388;28;20105;-74
2021/01/02 08:05:32;;;;;;;122.50;48.80;;;3.10;99.90;;;;;;4179433;28;20055;-74
2021/01/02 08:07:33;;;;;;;108.88;46.00;;;3.10;99.90;;;;;;4179317;28;20510;-74
2021/01/02 08:09:35;;;;;;;109.45;45.85;;;3.20;99.90;;;;;;4179343;28;20120;-74
2021/01/02 08:11:35;;;;;;;110.07;45.70;;;3.20;99.90;;;;;;4179093;28;20039;-74
2021/01/02 08:13:37;;;;;;;115.03;45.53;;;3.20;99.90;;;;;;4179154;28;20112;-74
2021/01/02 08:15:37;;;;;;;124.65;47.60;;;3.20;99.90;;;;;;4161772;28;20056;-74
2021/01/02 08:17:39;;;;;;;109.32;45.35;;;3.20;99.90;;;;;;4161381;28;20029;-74
2021/01/02 08:20:00;;;;;;;115.95;46.70;;;3.20;99.90;;;;;;4162949;28;20037;-73
2021/01/02 08:22:03;;;;;;;124.25;48.10;;;3.20;99.90;;;;;;4175710;28;20033;-74
2021/01/02 08:24:05;;;;;;;107.22;40.67;;;3.20;99.90;;;;;;4180546;28;20033;-74
2021/01/02 08:26:06;;;;;;;118.57;47.72;;;3.20;99.90;;;;;;4162643;28;20029;-74
2021/01/02 08:28:08;;;;;;;121.05;47.33;;;3.20;99.90;;;;;;4162782;28;20112;-74
2021/01/02 08:30:10;;;;;;;116.07;45.65;;;3.20;99.90;;;;;;4180318;28;20025;-74
2021/01/02 08:32:11;;;;;;;128.48;45.47;;;3.20;99.90;;;;;;4162520;28;20033;-73
2021/01/02 08:34:15;;;;;;;126.25;46.55;;;3.20;99.90;;;;;;4180457;28;20025;-75
2021/01/02 08:36:15;;;;;;;;;;;3.30;99.90;;;;;;4179866;28;20156;-74
2021/01/02 08:38:16;;;;;;;122.05;46.30;;;3.30;99.90;;;;;;4175979;28;20007;-75
2021/01/02 08:40:18;;;;;;;122.18;48.60;;;3.30;99.90;;;;;;4178651;28;20033;-75
2021/01/02 08:42:19;;;;;;;110.07;44.53;;;3.40;99.90;;;;;;4171579;28;20032;-74
2021/01/02 08:44:22;;;;;;;116.93;48.45;;;3.50;99.90;;;;;;4167426;28;20018;-75
2021/01/02 08:46:24;;;;;;;120.72;46.03;;;3.50;99.90;;;;;;4155968;28;20034;-73
2021/01/02 08:48:25;;;;;;;115.78;46.72;;;3.50;99.90;;;;;;4178550;28;20029;-73
2021/01/02 08:50:26;;;;;;;110.00;43.97;;;3.40;99.90;;;;;;4175036;28;20028;-73
2021/01/02 08:52:32;;;;;;;124.45;47.55;;;3.50;99.90;;;;;;4176082;28;20044;-74
2021/01/02 08:54:32;;;;;;;119.25;46.80;;;3.50;99.90;;;;;;4178669;28;20431;-74
2021/01/02 08:56:33;;;;;;;123.00;49.53;;;3.50;99.90;;;;;;4178216;28;20079;-74
2021/01/02 08:58:35;;;;;;;125.93;48.13;;;3.50;99.90;;;;;;4148309;28;20045;-75
2021/01/02 09:00:36;;;;;;;118.40;48.97;;;3.50;99.90;;;;;;4148514;28;20133;-74
2021/01/02 09:02:38;;;;;;;124.00;49.85;;;3.40;99.90;;;;;;4176791;28;20057;-74
2021/01/02 09:04:39;;;;;;;122.65;50.45;;;3.40;99.90;;;;;;4160754;28;20144;-74
2021/01/02 09:06:39;;;;;;;131.13;48.50;;;3.40;99.90;;;;;;4177088;28;20063;-75
2021/01/02 09:08:40;;;;;;;124.18;50.03;;;3.40;99.90;;;;;;4158971;28;20537;-75
2021/01/02 09:10:43;;;;;;;128.88;49.63;;;3.40;99.90;;;;;;4176568;28;20021;-74
2021/01/02 09:13:00;;;;;;;121.15;52.25;;;3.40;99.90;;;;;;4170202;28;20036;-74
2021/01/02 09:15:00;;;;;;;118.55;49.08;;;3.40;99.90;;;;;;4178175;28;20035;-73
2021/01/02 09:17:07;;;;;;;120.03;50.15;;;3.40;99.90;;;;;;4178914;28;20060;-74
2021/01/02 09:19:23;;;;;;;123.75;50.92;;;3.50;99.90;;;;;;4178276;28;20488;-74
2021/01/02 09:21:26;;;;;;;112.18;47.10;;;3.40;99.90;;;;;;4155882;28;20093;-75
2021/01/02 09:23:30;;;;;;;103.45;46.58;;;3.40;99.90;;;;;;4141652;28;20041;-74
2021/01/02 09:25:32;;;;;;;100.82;42.95;;;3.40;99.90;;;;;;4159376;28;20100;-74
2021/01/02 09:27:42;;;;;;;95.03;41.17;;;3.40;99.90;;;;;;4143792;28;20050;-74
2021/01/02 09:29:43;;;;;;;92.80;39.88;;;3.50;99.90;;;;;;4174917;28;20071;-75
2021/01/02 09:31:44;;;;;;;89.93;42.42;;;3.50;99.90;;;;;;4174652;28;20388;-74
2021/01/02 09:33:45;;;;;;;91.97;43.10;;;3.70;99.90;;;;;;4175490;28;20029;-74
2021/01/02 09:35:47;;;;;;;102.70;44.10;;;3.80;99.90;;;;;;4179152;28;20414;-75
2021/01/02 09:37:49;;;;;;;90.53;43.67;;;3.80;99.90;;;;;;4160630;28;20079;-74
2021/01/02 09:40:19;;;;;;;83.50;42.15;;;3.90;99.90;;;;;;4178714;28;20033;-74
2021/01/02 09:42:19;;;;;;;89.57;43.28;;;3.90;99.90;;;;;;4156435;28;20061;-74
2021/01/02 09:44:20;;;;;;;84.18;39.47;;;3.90;99.90;;;;;;4177846;28;20034;-74
2021/01/02 09:46:22;;;;;;;78.78;39.00;;;3.80;99.90;;;;;;4167636;28;20485;-74
2021/01/02 09:48:23;;;;;;;84.38;40.50;;;3.80;99.90;;;;;;4172981;28;20365;-74
2021/01/02 09:50:24;;;;;;;93.05;43.10;;;3.70;99.90;;;;;;4159785;28;20029;-73
2021/01/02 09:52:24;;;;;;;85.10;42.38;;;3.70;99.90;;;;;;4176339;28;20498;-73
2021/01/02 09:54:25;;;;;;;87.22;42.33;;;3.70;99.90;;;;;;4178355;28;20519;-75
2021/01/02 09:56:25;;;;;;;91.57;42.53;;;3.70;99.90;;;;;;4161255;28;20034;-73
2021/01/02 09:58:26;;;;;;;83.07;40.55;;;3.70;99.90;;;;;;4174622;28;20120;-73
2021/01/02 10:00:28;;;;;;;76.03;40.22;;;3.80;99.90;;;;;;4175733;28;20067;-73
2021/01/02 10:02:31;;;;;;;88.65;42.70;;;3.80;99.90;;;;;;4151765;28;20504;-74
2021/01/02 10:04:31;;;;;;;78.35;38.67;;;3.80;99.90;;;;;;4175209;28;20025;-75
2021/01/02 10:06:32;;;;;;;84.38;40.25;;;4.00;99.90;;;;;;4176243;28;20051;-73
2021/01/02 10:08:32;;;;;;;83.35;41.97;;;4.00;99.90;;;;;;4177531;28;20074;-75
2021/01/02 10:10:33;;;;;;;77.45;41.13;;;4.00;99.90;;;;;;4175345;28;20069;-74
2021/01/02 10:12:34;;;;;;;86.10;41.78;;;4.00;99.90;;;;;;4156877;28;21225;-75
2021/01/02 10:14:36;;;;;;;91.00;42.95;;;4.00;99.90;;;;;;4179003;28;20025;-74
2021/01/02 10:16:36;;;;;;;86.97;41.60;;;4.00;99.90;;;;;;4158358;28;20036;-75
2021/01/02 10:18:38;;;;;;;72.88;39.10;;;4.00;99.90;;;;;;4159259;28;20033;-75
2021/01/02 10:20:38;;;;;;;73.55;39.05;;;3.90;99.90;;;;;;4159007;28;20091;-74
2021/01/02 10:22:40;;;;;;;83.22;39.83;;;3.90;99.90;;;;;;4171446;28;20472;-76
2021/01/02 10:24:40;;;;;;;75.10;38.97;;;3.90;99.90;;;;;;4172306;28;20021;-74
2021/01/02 10:26:41;;;;;;;63.90;35.28;;;3.90;99.90;;;;;;4171495;28;20079;-74
2021/01/02 10:28:42;;;;;;;68.03;35.63;;;3.90;99.90;;;;;;4170003;28;20098;-74
2021/01/02 10:30:43;;;;;;;77.35;36.80;;;4.00;99.90;;;;;;4158997;28;20530;-76
2021/01/02 10:32:44;;;;;;;75.93;37.38;;;4.00;99.90;;;;;;4162729;28;20045;-74
2021/01/02 10:34:48;;;;;;;74.88;37.75;;;4.00;99.90;;;;;;4180454;28;20053;-74
2021/01/02 10:36:49;;;;;;;81.18;39.25;;;4.00;99.90;;;;;;4163995;28;20056;-74
2021/01/02 10:38:49;;;;;;;69.97;34.50;;;4.00;99.90;;;;;;4180597;28;20033;-74
2021/01/02 10:40:51;;;;;;;77.40;37.83;;;4.00;99.90;;;;;;4181427;28;20108;-74
2021/01/02 10:42:52;;;;;;;77.85;38.35;;;4.00;99.90;;;;;;4177202;28;20035;-74